createdAt,value
2019-06-26T00:01:55.599Z,54.28
2019-06-26T00:04:27.443Z,54.38
2019-06-26T00:06:59.381Z,54.34
2019-06-26T00:09:31.216Z,53.75
2019-06-26T00:12:04.624Z,53.93
2019-06-26T00:14:38.721Z,54.18
2019-06-26T00:17:10.026Z,54.12
2019-06-26T00:19:41.846Z,54.66
2019-06-26T00:22:13.691Z,54.05
2019-06-26T00:24:45.622Z,54.93
2019-06-26T00:27:17.560Z,55.30
2019-06-26T00:29:49.466Z,55.39
2019-06-26T00:32:21.279Z,55.81
2019-06-26T00:34:54.124Z,56.34
2019-06-26T00:37:26.053Z,56.33
2019-06-26T00:39:57.897Z,56.42
2019-06-26T00:42:30.213Z,56.63
2019-06-26T00:45:02.131Z,56.60
2019-06-26T00:47:34.111Z,56.66
2019-06-26T00:50:09.134Z,56.95
2019-06-26T00:52:41.096Z,57.07
2019-06-26T00:55:12.926Z,56.88
2019-06-26T00:57:44.880Z,57.34
2019-06-26T01:00:16.793Z,57.67
2019-06-26T01:02:48.779Z,57.71
2019-06-26T01:05:20.596Z,57.72
2019-06-26T01:07:52.560Z,57.95
2019-06-26T01:10:24.456Z,57.91
2019-06-26T01:12:56.403Z,57.91
2019-06-26T01:15:28.220Z,57.59
2019-06-26T01:18:00.160Z,57.57
2019-06-26T01:20:31.987Z,57.51
2019-06-26T01:23:03.868Z,57.56
2019-06-26T01:25:35.861Z,57.39
2019-06-26T01:28:07.719Z,57.08
2019-06-26T01:30:39.758Z,57.30
2019-06-26T01:33:11.717Z,56.96
2019-06-26T01:35:45.623Z,57.05
2019-06-26T01:38:17.569Z,57.35
2019-06-26T01:40:49.477Z,57.32
2019-06-26T01:43:21.348Z,57.40
2019-06-26T01:45:53.290Z,57.83
2019-06-26T01:48:25.206Z,58.17
2019-06-26T01:50:57.037Z,58.25
2019-06-26T01:53:29.168Z,58.29
2019-06-26T01:56:01.302Z,58.89
2019-06-26T01:58:33.373Z,58.44
2019-06-26T02:01:05.410Z,57.97
2019-06-26T02:03:37.483Z,57.89
2019-06-26T02:06:09.492Z,57.96
2019-06-26T02:08:41.471Z,58.07
2019-06-26T02:11:13.508Z,58.49
2019-06-26T02:13:45.485Z,57.98
2019-06-26T02:16:17.460Z,57.95
2019-06-26T02:18:51.186Z,58.27
2019-06-26T02:21:23.209Z,58.38
2019-06-26T02:23:55.278Z,58.25
2019-06-26T02:26:27.339Z,57.99
2019-06-26T02:28:59.488Z,58.24
2019-06-26T02:31:31.424Z,58.28
2019-06-26T02:34:03.573Z,58.44
2019-06-26T02:36:35.680Z,58.63
2019-06-26T02:39:07.833Z,59.03
2019-06-26T02:41:39.938Z,59.06
2019-06-26T02:44:12.106Z,59.06
2019-06-26T02:46:44.217Z,59.10
2019-06-26T02:49:16.352Z,58.93
2019-06-26T02:51:48.273Z,58.21
2019-06-26T02:54:20.196Z,58.19
2019-06-26T02:56:52.016Z,55.99
2019-06-26T02:59:23.827Z,55.69
2019-06-26T03:01:55.710Z,55.65
2019-06-26T03:04:27.698Z,55.76
2019-06-26T03:06:59.615Z,55.71
2019-06-26T03:09:31.557Z,55.75
2019-06-26T03:12:03.457Z,55.61
2019-06-26T03:14:35.317Z,55.34
2019-06-26T03:17:07.248Z,53.78
2019-06-26T03:19:39.097Z,52.44
2019-06-26T03:22:10.935Z,51.66
2019-06-26T03:24:42.887Z,51.03
2019-06-26T03:27:14.705Z,49.96
2019-06-26T03:29:46.869Z,49.87
2019-06-26T03:32:18.653Z,49.63
2019-06-26T03:34:50.524Z,49.54
2019-06-26T03:37:23.395Z,48.57
2019-06-26T03:39:55.363Z,48.47
2019-06-26T03:42:27.287Z,48.25
2019-06-26T03:44:59.244Z,48.14
2019-06-26T03:47:31.146Z,47.84
2019-06-26T03:50:03.697Z,47.11
2019-06-26T03:52:35.593Z,47.06
2019-06-26T03:55:07.540Z,46.77
2019-06-26T03:57:39.552Z,46.78
2019-06-26T04:00:12.545Z,46.96
2019-06-26T04:02:44.489Z,46.53
2019-06-26T04:05:16.581Z,46.33
2019-06-26T04:07:48.471Z,46.34
2019-06-26T04:10:20.343Z,45.95
2019-06-26T04:12:52.320Z,46.09
2019-06-26T04:15:37.583Z,46.03
2019-06-26T04:17:57.956Z,45.79
2019-06-26T04:20:30.001Z,45.34
2019-06-26T04:23:01.832Z,45.37
2019-06-26T04:25:33.779Z,45.22
2019-06-26T04:28:06.526Z,44.06
2019-06-26T04:30:39.711Z,44.21
2019-06-26T04:33:11.605Z,44.41
2019-06-26T04:35:43.454Z,44.09
2019-06-26T04:38:16.469Z,43.30
2019-06-26T04:40:48.412Z,43.26
2019-06-26T04:43:20.328Z,42.49
2019-06-26T04:45:57.989Z,42.42
2019-06-26T04:48:25.962Z,42.26
2019-06-26T04:50:57.853Z,42.18
2019-06-26T04:53:29.774Z,41.79
2019-06-26T04:56:01.714Z,41.72
2019-06-26T04:58:33.617Z,42.21
2019-06-26T05:01:05.553Z,41.85
2019-06-26T05:03:37.436Z,41.35
2019-06-26T05:06:09.383Z,40.59
2019-06-26T05:08:41.342Z,40.15
2019-06-26T05:11:13.302Z,40.50
2019-06-26T05:13:45.229Z,40.52
2019-06-26T05:16:20.296Z,40.27
2019-06-26T05:18:50.787Z,40.27
2019-06-26T05:21:22.750Z,40.49
2019-06-26T05:23:54.744Z,40.50
2019-06-26T05:26:26.753Z,40.24
2019-06-26T05:28:58.638Z,39.82
2019-06-26T05:31:30.674Z,39.61
2019-06-26T05:34:02.754Z,39.58
2019-06-26T05:36:34.708Z,39.26
2019-06-26T05:39:07.701Z,38.53
2019-06-26T05:41:39.636Z,38.56
2019-06-26T05:44:11.551Z,39.21
2019-06-26T05:46:43.667Z,38.78
2019-06-26T05:49:15.561Z,39.12
2019-06-26T05:51:47.558Z,38.59
2019-06-26T05:54:20.480Z,38.57
2019-06-26T05:56:53.449Z,37.99
2019-06-26T05:59:25.463Z,37.94
2019-06-26T06:01:57.491Z,37.79
2019-06-26T06:04:29.427Z,37.52
2019-06-26T06:07:01.372Z,37.85
2019-06-26T06:09:33.319Z,38.19
2019-06-26T06:12:05.285Z,37.76
2019-06-26T06:14:37.254Z,37.16
2019-06-26T06:17:09.191Z,36.84
2019-06-26T06:19:41.111Z,37.41
2019-06-26T06:22:13.068Z,37.22
2019-06-26T06:24:45.106Z,37.08
2019-06-26T06:27:17.106Z,36.39
2019-06-26T06:29:49.023Z,36.55
2019-06-26T06:32:22.157Z,36.55
2019-06-26T06:34:56.124Z,36.08
2019-06-26T06:37:28.103Z,36.12
2019-06-26T06:40:00.974Z,35.91
2019-06-26T06:45:37.053Z,35.21
2019-06-26T06:48:09.182Z,33.87
2019-06-26T06:50:44.165Z,34.23
2019-06-26T06:53:17.392Z,34.85
2019-06-26T06:55:52.072Z,34.51
2019-06-26T06:58:24.189Z,35.14
2019-06-26T07:00:56.266Z,33.43
2019-06-26T07:03:30.808Z,33.10
2019-06-26T07:09:36.980Z,32.85
2019-06-26T07:12:20.995Z,32.33
2019-06-26T07:14:55.913Z,31.46
2019-06-26T07:17:44.594Z,30.77
2019-06-26T07:20:16.538Z,31.05
2019-06-26T07:22:54.937Z,30.89
2019-06-26T07:25:36.229Z,31.13
2019-06-26T07:28:09.294Z,31.36
2019-06-26T07:30:42.439Z,32.16
2019-06-26T07:58:46.727Z,31.62
2019-06-26T08:01:19.694Z,31.32
2019-06-26T08:03:53.329Z,30.59
2019-06-26T08:06:50.581Z,29.20
2019-06-26T08:09:22.549Z,30.36
2019-06-26T08:11:57.762Z,30.28
2019-06-26T08:14:33.261Z,29.24
2019-06-26T08:17:05.357Z,29.85
2019-06-26T08:19:40.349Z,29.51
2019-06-26T08:22:26.136Z,28.80
2019-06-26T08:28:19.387Z,29.36
2019-06-26T08:31:09.115Z,29.95
2019-06-26T08:33:41.054Z,28.95
2019-06-26T08:36:13.009Z,29.06
2019-06-26T08:38:44.921Z,28.33
2019-06-26T08:41:16.819Z,28.13
2019-06-26T08:43:48.726Z,28.62
2019-06-26T08:46:20.620Z,30.50
2019-06-26T08:48:52.454Z,30.04
2019-06-26T08:51:24.393Z,28.32
2019-06-26T08:53:56.316Z,28.49
2019-06-26T08:56:28.340Z,29.54
2019-06-26T08:59:00.354Z,29.47
2019-06-26T09:01:32.288Z,29.37
2019-06-26T09:04:04.281Z,27.84
2019-06-26T09:06:36.102Z,28.32
2019-06-26T09:09:08.064Z,28.14
2019-06-26T09:11:39.992Z,28.13
2019-06-26T09:14:11.887Z,28.38
2019-06-26T09:16:43.802Z,29.47
2019-06-26T09:19:15.702Z,28.81
2019-06-26T09:21:47.569Z,28.44
2019-06-26T09:24:19.539Z,29.12
2019-06-26T09:26:51.407Z,27.91
2019-06-26T09:29:24.111Z,28.15
2019-06-26T09:31:56.205Z,27.92
2019-06-26T09:34:28.131Z,28.32
2019-06-26T09:37:00.040Z,28.17
2019-06-26T09:39:31.931Z,28.37
2019-06-26T09:42:03.835Z,28.85
2019-06-26T09:44:35.769Z,28.67
2019-06-26T09:47:07.765Z,27.79
2019-06-26T09:49:39.668Z,27.65
2019-06-26T09:52:11.561Z,28.52
2019-06-26T09:54:43.413Z,28.29
2019-06-26T09:57:15.317Z,27.62
2019-06-26T09:59:47.261Z,27.98
2019-06-26T10:02:19.179Z,27.63
2019-06-26T10:04:50.977Z,28.34
2019-06-26T10:07:22.839Z,27.79
2019-06-26T10:09:54.751Z,28.21
2019-06-26T10:12:26.634Z,27.76
2019-06-26T10:14:58.551Z,27.44
2019-06-26T10:17:30.452Z,28.39
2019-06-26T10:20:02.414Z,27.69
2019-06-26T10:22:34.251Z,28.13
2019-06-26T10:25:10.923Z,27.79
2019-06-26T10:27:40.587Z,26.43
2019-06-26T10:30:12.507Z,26.60
2019-06-26T10:32:44.417Z,26.95
2019-06-26T10:35:16.317Z,27.29
2019-06-26T10:37:48.214Z,27.42
2019-06-26T10:40:20.138Z,27.15
2019-06-26T10:42:52.077Z,26.89
2019-06-26T10:45:23.926Z,27.28
2019-06-26T10:47:55.750Z,26.43
2019-06-26T10:50:27.591Z,26.16
2019-06-26T10:52:59.520Z,26.16
2019-06-26T10:55:31.439Z,26.40
2019-06-26T10:58:03.425Z,26.90
2019-06-26T11:00:35.357Z,26.57
2019-06-26T11:03:07.233Z,26.37
2019-06-26T11:05:39.137Z,26.18
2019-06-26T11:08:11.045Z,26.40
2019-06-26T11:10:42.955Z,26.29
2019-06-26T11:13:14.861Z,25.91
2019-06-26T11:15:46.764Z,26.06
2019-06-26T11:18:19.659Z,26.04
2019-06-26T11:20:51.580Z,25.90
2019-06-26T11:23:23.500Z,26.40
2019-06-26T11:25:55.526Z,26.40
2019-06-26T11:28:27.403Z,26.48
2019-06-26T11:30:59.396Z,25.61
2019-06-26T11:33:31.402Z,26.09
2019-06-26T11:36:03.253Z,26.09
2019-06-26T11:38:35.303Z,26.63
2019-06-26T11:41:07.226Z,26.63
2019-06-26T11:43:39.165Z,26.38
2019-06-26T11:46:11.057Z,25.80
2019-06-26T11:48:43.046Z,25.39
2019-06-26T11:51:14.952Z,25.10
2019-06-26T11:53:46.858Z,25.16
2019-06-26T11:56:18.777Z,25.11
2019-06-26T11:58:50.678Z,25.78
2019-06-26T12:01:22.793Z,25.78
2019-06-26T12:03:54.737Z,25.09
2019-06-26T12:06:26.641Z,25.05
2019-06-26T12:08:58.573Z,24.74
2019-06-26T12:11:30.422Z,25.49
2019-06-26T12:14:03.453Z,25.41
2019-06-26T12:16:35.358Z,24.89
2019-06-26T12:19:23.802Z,24.89
2019-06-26T12:21:55.741Z,24.50
2019-06-26T12:24:27.603Z,25.46
2019-06-26T12:26:59.527Z,25.47
2019-06-26T12:29:48.037Z,25.46
2019-06-26T12:32:42.119Z,25.46
2019-06-26T12:35:10.175Z,26.17
2019-06-26T12:37:42.097Z,26.32
2019-06-26T12:40:31.493Z,26.32
2019-06-26T12:43:19.950Z,26.32
2019-06-26T12:45:51.847Z,26.21
2019-06-26T12:48:40.264Z,26.00
2019-06-26T12:51:28.494Z,26.58
2019-06-26T12:54:16.819Z,25.85
2019-06-26T12:56:48.765Z,25.94
2019-06-26T12:59:37.314Z,25.59
2019-06-26T13:02:25.464Z,26.41
2019-06-26T13:05:00.443Z,25.69
2019-06-26T13:07:32.311Z,24.94
2019-06-26T13:10:07.468Z,25.05
2019-06-26T13:12:40.552Z,25.60
2019-06-26T13:15:12.390Z,26.63
2019-06-26T13:17:44.372Z,26.26
2019-06-26T13:20:17.295Z,26.26
2019-06-26T13:22:49.273Z,26.36
2019-06-26T13:25:21.119Z,26.16
2019-06-26T13:27:53.012Z,25.83
2019-06-26T13:30:36.845Z,25.61
2019-06-26T13:33:09.774Z,25.37
2019-06-26T13:35:41.611Z,25.05
2019-06-26T13:38:13.419Z,25.74
2019-06-26T13:40:45.269Z,25.11
2019-06-26T13:43:18.167Z,25.30
2019-06-26T13:45:50.054Z,24.74
2019-06-26T13:48:21.924Z,24.62
2019-06-26T13:51:08.073Z,24.62
2019-06-26T13:53:27.506Z,24.63
2019-06-26T13:55:59.432Z,24.76
2019-06-26T13:58:31.338Z,24.21
2019-06-26T14:01:03.265Z,23.75
2019-06-26T14:03:35.196Z,23.77
2019-06-26T14:06:07.102Z,23.75
2019-06-26T14:08:38.927Z,24.51
2019-06-26T14:11:10.774Z,25.36
2019-06-26T14:13:42.654Z,24.92
2019-06-26T14:16:14.479Z,24.58
2019-06-26T14:18:46.382Z,24.86
2019-06-26T14:21:25.672Z,24.44
2019-06-26T14:23:51.907Z,24.82
2019-06-26T14:26:23.752Z,25.34
2019-06-26T14:28:55.675Z,25.34
2019-06-26T14:31:27.505Z,25.29
2019-06-26T14:33:59.412Z,25.55
2019-06-26T14:36:31.270Z,25.44
2019-06-26T14:39:04.659Z,25.15
2019-06-26T14:41:39.215Z,24.78
2019-06-26T14:44:11.276Z,24.29
2019-06-26T14:46:43.197Z,24.98
2019-06-26T14:49:15.018Z,24.91
2019-06-26T14:51:47.891Z,24.61
2019-06-26T14:54:19.997Z,24.89
2019-06-26T14:56:51.837Z,24.39
2019-06-26T14:59:23.709Z,24.30
2019-06-26T15:01:55.556Z,24.75
2019-06-26T15:04:27.399Z,24.86
2019-06-26T15:06:59.328Z,25.06
2019-06-26T15:09:31.229Z,24.81
2019-06-26T15:12:03.149Z,24.81
2019-06-26T15:14:35.146Z,24.55
2019-06-26T15:17:07.061Z,25.10
2019-06-26T15:19:38.929Z,25.61
2019-06-26T15:22:10.807Z,25.08
2019-06-26T15:24:42.752Z,25.32
2019-06-26T15:27:14.697Z,25.19
2019-06-26T15:29:46.656Z,25.20
2019-06-26T15:32:18.546Z,25.33
2019-06-26T15:34:50.544Z,25.44
2019-06-26T15:37:22.466Z,25.18
2019-06-26T15:39:54.308Z,25.28
2019-06-26T15:42:26.240Z,24.79
2019-06-26T15:44:58.136Z,25.23
2019-06-26T15:47:29.928Z,24.89
2019-06-26T15:50:01.918Z,25.32
2019-06-26T15:52:33.839Z,25.63
2019-06-26T15:55:07.267Z,25.86
2019-06-26T15:57:39.121Z,25.87
2019-06-26T16:00:11.010Z,26.11
2019-06-26T16:02:42.828Z,26.26
2019-06-26T16:05:16.586Z,26.53
2019-06-26T16:07:48.491Z,26.53
2019-06-26T16:10:20.416Z,26.36
2019-06-26T16:12:52.336Z,25.78
2019-06-26T16:15:24.327Z,26.27
2019-06-26T16:18:06.885Z,26.13
2019-06-26T16:20:38.808Z,26.15
2019-06-26T16:23:10.730Z,26.38
2019-06-26T16:25:42.721Z,26.52
2019-06-26T16:28:14.643Z,26.78
2019-06-26T16:30:46.645Z,26.78
2019-06-26T16:33:18.396Z,26.64
2019-06-26T16:35:50.326Z,26.64
2019-06-26T16:38:22.170Z,26.91
2019-06-26T16:40:54.155Z,27.07
2019-06-26T16:43:26.069Z,27.79
2019-06-26T16:45:57.958Z,27.46
2019-06-26T16:48:29.918Z,27.66
2019-06-26T16:51:01.833Z,27.86
2019-06-26T16:53:35.551Z,28.78
2019-06-26T16:56:07.391Z,29.13
2019-06-26T16:58:39.296Z,29.13
2019-06-26T17:01:11.234Z,29.51
2019-06-26T17:03:43.148Z,29.63
2019-06-26T17:06:16.155Z,29.76
2019-06-26T17:08:48.036Z,29.80
2019-06-26T17:11:19.969Z,29.93
2019-06-26T17:13:51.799Z,30.14
2019-06-26T17:16:25.252Z,30.14
2019-06-26T17:18:57.199Z,30.18
2019-06-26T17:21:29.028Z,30.67
2019-06-26T17:24:00.907Z,31.17
2019-06-26T17:26:34.540Z,31.57
2019-06-26T17:29:07.461Z,31.54
2019-06-26T17:31:39.346Z,32.79
2019-06-26T17:34:11.361Z,35.15
2019-06-26T17:36:43.302Z,36.09
2019-06-26T17:39:15.250Z,37.17
2019-06-26T17:41:47.166Z,37.95
2019-06-26T17:44:19.114Z,38.49
2019-06-26T17:46:51.007Z,39.22
2019-06-26T17:49:22.962Z,39.87
2019-06-26T17:51:54.968Z,40.16
2019-06-26T17:54:26.917Z,40.75
2019-06-26T17:56:58.927Z,41.25
2019-06-26T17:59:30.959Z,41.32
2019-06-26T18:02:02.985Z,42.35
2019-06-26T18:04:34.995Z,43.37
2019-06-26T18:07:07.020Z,43.88
2019-06-26T18:09:39.034Z,44.40
2019-06-26T18:12:11.049Z,44.12
2019-06-26T18:14:43.477Z,44.52
2019-06-26T18:17:22.148Z,45.08
2019-06-26T18:19:49.108Z,45.52
2019-06-26T18:22:21.003Z,46.09
2019-06-26T18:24:53.005Z,46.50
2019-06-26T18:27:25.063Z,46.69
2019-06-26T18:29:56.994Z,46.56
2019-06-26T18:32:28.987Z,47.13
2019-06-26T18:35:01.118Z,47.49
2019-06-26T18:37:33.057Z,47.53
2019-06-26T18:40:06.347Z,47.67
2019-06-26T18:42:38.709Z,47.43
2019-06-26T18:45:10.594Z,47.57
2019-06-26T18:47:42.625Z,48.11
2019-06-26T18:50:14.487Z,48.26
2019-06-26T18:52:46.515Z,48.34
2019-06-26T18:55:18.511Z,48.64
2019-06-26T18:57:50.421Z,48.53
2019-06-26T19:00:22.443Z,48.44
2019-06-26T19:02:54.478Z,48.83
2019-06-26T19:05:27.329Z,49.27
2019-06-26T19:07:59.457Z,49.31
2019-06-26T19:10:31.344Z,49.42
2019-06-26T19:13:03.195Z,49.70
2019-06-26T19:15:35.218Z,50.09
2019-06-26T19:18:07.139Z,49.88
2019-06-26T19:20:38.986Z,49.97
2019-06-26T19:23:11.013Z,50.11
2019-06-26T19:25:43.141Z,50.51
2019-06-26T19:28:14.974Z,49.67
2019-06-26T19:30:46.871Z,49.68
2019-06-26T19:33:18.810Z,48.97
2019-06-26T19:35:50.737Z,48.24
2019-06-26T19:38:22.858Z,48.30
2019-06-26T19:40:54.724Z,48.28
2019-06-26T19:43:26.643Z,48.58
2019-06-26T19:45:58.543Z,48.65
2019-06-26T19:48:30.381Z,48.83
2019-06-26T19:51:02.370Z,49.33
2019-06-26T19:53:34.275Z,50.15
2019-06-26T19:56:06.205Z,51.15
2019-06-26T19:58:38.075Z,51.88
2019-06-26T20:01:09.990Z,51.91
2019-06-26T20:03:41.999Z,51.70
2019-06-26T20:06:13.902Z,51.21
2019-06-26T20:08:54.454Z,50.87
2019-06-26T20:11:19.488Z,51.01
2019-06-26T20:13:51.417Z,51.38
2019-06-26T20:16:23.280Z,52.47
2019-06-26T20:18:55.092Z,53.42
2019-06-26T20:21:27.091Z,53.87
2019-06-26T20:24:00.035Z,53.75
2019-06-26T20:26:32.038Z,53.31
2019-06-26T20:29:03.964Z,52.45
2019-06-26T20:31:37.085Z,51.55
2019-06-26T20:34:09.085Z,51.87
2019-06-26T20:36:41.112Z,51.77
2019-06-26T20:39:13.126Z,52.38
2019-06-26T20:41:45.025Z,52.53
2019-06-26T20:44:17.045Z,52.51
2019-06-26T20:46:48.973Z,52.12
2019-06-26T20:49:20.892Z,52.41
2019-06-26T20:51:52.802Z,52.81
2019-06-26T20:54:26.146Z,53.26
2019-06-26T20:56:57.970Z,53.17
2019-06-26T20:59:29.912Z,52.84
2019-06-26T21:02:01.936Z,53.11
2019-06-26T21:04:33.877Z,53.60
2019-06-26T21:07:05.873Z,53.45
2019-06-26T21:09:37.797Z,54.20
2019-06-26T21:12:09.765Z,54.46
2019-06-26T21:14:41.783Z,55.20
2019-06-26T21:17:13.684Z,55.54
2019-06-26T21:19:45.607Z,55.53
2019-06-26T21:22:17.443Z,55.08
2019-06-26T21:24:49.465Z,54.57
2019-06-26T21:27:21.365Z,54.11
2019-06-26T21:29:53.320Z,54.16
2019-06-26T21:32:25.244Z,55.28
2019-06-26T21:34:57.215Z,55.15
2019-06-26T21:37:29.225Z,54.87
2019-06-26T21:40:01.167Z,54.28
2019-06-26T21:42:33.175Z,53.89
2019-06-26T21:45:05.976Z,54.27
2019-06-26T21:47:37.796Z,54.68
2019-06-26T21:50:09.704Z,55.18
2019-06-26T21:52:41.619Z,55.60
2019-06-26T21:55:13.639Z,55.87
2019-06-26T21:58:03.419Z,56.04
2019-06-26T22:00:53.118Z,56.15
2019-06-26T22:03:42.686Z,56.29
2019-06-26T22:06:22.076Z,56.25
2019-06-26T22:09:07.294Z,56.62
2019-06-26T22:11:40.721Z,56.40
2019-06-26T22:14:12.778Z,56.29
